createdAt,value
2017-10-21T00:01:21.540Z,2.57
2017-10-21T00:03:57.301Z,2.77
2017-10-21T00:06:31.963Z,3.13
2017-10-21T00:09:06.640Z,2.87
2017-10-21T00:11:41.177Z,2.57
2017-10-21T00:14:16.004Z,3.43
2017-10-21T00:16:50.656Z,2.60
2017-10-21T00:19:25.392Z,2.87
2017-10-21T00:22:00.062Z,3.30
2017-10-21T00:24:34.729Z,3.63
2017-10-21T00:27:09.353Z,2.33
2017-10-21T00:29:43.960Z,3.47
2017-10-21T00:32:18.932Z,3.43
2017-10-21T00:34:53.815Z,2.90
2017-10-21T00:37:28.628Z,2.90
2017-10-21T00:40:03.356Z,3.30
2017-10-21T00:42:37.709Z,2.53
2017-10-21T00:45:12.753Z,4.60
2017-10-21T00:47:47.721Z,3.10
2017-10-21T00:50:22.832Z,3.43
2017-10-21T00:52:57.214Z,3.40
2017-10-21T00:55:32.042Z,2.80
2017-10-21T00:58:06.914Z,3.03
2017-10-21T01:00:41.606Z,3.07
2017-10-21T01:03:16.428Z,2.60
2017-10-21T01:05:51.400Z,2.93
2017-10-21T01:08:26.201Z,2.73
2017-10-21T01:11:01.056Z,3.10
2017-10-21T01:13:35.500Z,2.87
2017-10-21T01:16:10.101Z,2.80
2017-10-21T01:18:45.364Z,2.83
2017-10-21T01:21:19.553Z,3.33
2017-10-21T01:23:54.501Z,3.70
2017-10-21T01:26:29.113Z,3.03
2017-10-21T01:29:04.133Z,2.27
2017-10-21T01:31:38.749Z,3.40
2017-10-21T01:34:13.595Z,3.00
2017-10-21T01:36:48.296Z,3.00
2017-10-21T01:39:23.020Z,2.97
2017-10-21T01:41:57.588Z,3.27
2017-10-21T01:44:32.616Z,2.50
2017-10-21T01:47:07.483Z,3.63
2017-10-21T01:49:41.700Z,2.70
2017-10-21T01:52:16.696Z,3.13
2017-10-21T01:54:51.407Z,3.40
2017-10-21T01:57:26.558Z,3.00
2017-10-21T02:00:01.269Z,4.37
2017-10-21T02:02:36.836Z,2.63
2017-10-21T02:05:11.416Z,2.77
2017-10-21T02:07:46.173Z,2.90
2017-10-21T02:10:21.197Z,2.70
2017-10-21T02:12:55.676Z,2.90
2017-10-21T02:15:30.275Z,2.93
2017-10-21T02:18:05.080Z,2.87
2017-10-21T02:20:40.052Z,2.70
2017-10-21T02:23:14.668Z,2.80
2017-10-21T02:25:49.253Z,3.17
2017-10-21T02:28:23.930Z,2.70
2017-10-21T02:30:58.558Z,3.23
2017-10-21T02:33:33.428Z,2.30
2017-10-21T02:36:08.193Z,2.83
2017-10-21T02:38:43.054Z,3.27
2017-10-21T02:41:17.692Z,2.93
2017-10-21T02:43:52.329Z,2.70
2017-10-21T02:46:26.721Z,3.03
2017-10-21T02:49:01.749Z,2.93
2017-10-21T02:51:36.156Z,3.90
2017-10-21T02:54:10.979Z,3.20
2017-10-21T02:56:45.830Z,4.00
2017-10-21T02:59:20.826Z,2.93
2017-10-21T03:01:55.649Z,1.90
2017-10-21T03:04:30.316Z,2.63
2017-10-21T03:07:05.425Z,3.40
2017-10-21T03:09:39.900Z,2.93
2017-10-21T03:12:15.053Z,3.10
2017-10-21T03:14:49.244Z,2.93
2017-10-21T03:17:24.513Z,3.00
2017-10-21T03:19:59.140Z,2.30
2017-10-21T03:22:33.841Z,3.27
2017-10-21T03:25:08.612Z,3.00
2017-10-21T03:27:43.347Z,2.70
2017-10-21T03:30:17.807Z,2.30
2017-10-21T03:32:52.619Z,3.47
2017-10-21T03:35:28.164Z,3.27
2017-10-21T03:38:02.741Z,2.63
2017-10-21T03:40:37.900Z,3.10
2017-10-21T03:43:12.720Z,3.10
2017-10-21T03:45:47.644Z,3.20
2017-10-21T03:48:22.205Z,2.70
2017-10-21T03:50:56.944Z,2.77
2017-10-21T03:53:31.765Z,3.20
2017-10-21T03:56:06.511Z,2.93
2017-10-21T03:58:41.213Z,2.90
2017-10-21T04:01:16.058Z,3.03
2017-10-21T04:03:51.392Z,2.70
2017-10-21T04:06:26.248Z,3.37
2017-10-21T04:09:01.025Z,3.07
2017-10-21T04:11:35.624Z,3.23
2017-10-21T04:14:10.409Z,2.83
2017-10-21T04:16:45.436Z,3.50
2017-10-21T04:19:20.224Z,2.80
2017-10-21T04:21:55.233Z,2.73
2017-10-21T04:24:29.861Z,2.90
2017-10-21T04:27:04.786Z,2.90
2017-10-21T04:29:39.809Z,2.80
2017-10-21T04:32:14.470Z,3.00
2017-10-21T04:34:49.249Z,3.10
2017-10-21T04:37:24.056Z,2.73
2017-10-21T04:39:58.893Z,2.00
2017-10-21T04:42:33.925Z,2.63
2017-10-21T04:45:08.690Z,2.80
2017-10-21T04:47:43.416Z,2.27
2017-10-21T04:50:18.188Z,2.20
2017-10-21T04:52:52.922Z,2.57
2017-10-21T04:55:27.412Z,2.50
2017-10-21T04:58:02.234Z,2.27
2017-10-21T05:00:37.206Z,2.73
2017-10-21T05:03:12.161Z,4.50
2017-10-21T05:05:46.842Z,2.43
2017-10-21T05:08:21.681Z,2.50
2017-10-21T05:10:56.489Z,2.27
2017-10-21T05:13:31.180Z,2.53
2017-10-21T05:16:06.144Z,2.13
2017-10-21T05:18:40.926Z,3.40
2017-10-21T05:21:15.912Z,2.57
2017-10-21T05:23:50.544Z,3.40
2017-10-21T05:26:25.856Z,2.53
2017-10-21T05:29:01.197Z,2.70
2017-10-21T05:31:36.269Z,2.70
2017-10-21T05:34:11.500Z,4.20
2017-10-21T05:36:46.600Z,2.40
2017-10-21T05:39:21.313Z,2.97
2017-10-21T05:41:55.949Z,1.93
2017-10-21T05:44:30.524Z,2.27
2017-10-21T05:47:05.341Z,2.50
2017-10-21T05:49:40.145Z,2.60
2017-10-21T05:52:14.925Z,2.63
2017-10-21T05:54:49.611Z,2.40
2017-10-21T05:57:24.632Z,2.03
2017-10-21T05:59:59.341Z,2.63
2017-10-21T06:02:33.933Z,2.10
2017-10-21T06:05:08.669Z,2.50
2017-10-21T06:07:43.045Z,2.60
2017-10-21T06:10:17.891Z,2.43
2017-10-21T06:12:52.641Z,2.50
2017-10-21T06:15:27.138Z,2.50
2017-10-21T06:18:02.432Z,1.97
2017-10-21T06:20:37.265Z,2.30
2017-10-21T06:23:11.921Z,4.50
2017-10-21T06:25:46.964Z,2.00
2017-10-21T06:28:21.722Z,2.97
2017-10-21T06:30:56.271Z,2.70
2017-10-21T06:33:30.701Z,2.03
2017-10-21T06:36:05.634Z,2.70
2017-10-21T06:38:40.560Z,2.30
2017-10-21T06:41:14.996Z,1.90
2017-10-21T06:43:50.041Z,2.27
2017-10-21T06:46:24.744Z,2.47
2017-10-21T06:48:59.940Z,2.80
2017-10-21T06:51:35.173Z,2.50
2017-10-21T06:54:10.019Z,1.93
2017-10-21T06:56:44.758Z,2.30
2017-10-21T06:59:19.603Z,2.23
2017-10-21T07:01:54.457Z,2.73
2017-10-21T07:04:29.956Z,2.53
2017-10-21T07:07:04.913Z,2.60
2017-10-21T07:09:39.720Z,2.63
2017-10-21T07:12:14.213Z,1.90
2017-10-21T07:14:49.017Z,1.73
2017-10-21T07:17:24.051Z,2.50
2017-10-21T07:19:58.638Z,2.20
2017-10-21T07:22:33.638Z,2.90
2017-10-21T07:25:08.409Z,2.30
2017-10-21T07:27:43.121Z,2.20
2017-10-21T07:30:18.357Z,2.30
2017-10-21T07:32:53.416Z,2.20
2017-10-21T07:35:28.266Z,2.03
2017-10-21T07:38:03.108Z,1.83
2017-10-21T07:40:37.693Z,2.83
2017-10-21T07:43:12.712Z,2.43
2017-10-21T07:45:47.448Z,2.17
2017-10-21T07:48:21.916Z,3.10
2017-10-21T07:50:56.701Z,2.13
2017-10-21T07:53:31.476Z,2.50
2017-10-21T07:56:06.281Z,2.70
2017-10-21T07:58:41.183Z,2.90
2017-10-21T08:01:15.835Z,2.60
2017-10-21T08:03:51.258Z,1.90
2017-10-21T08:06:26.477Z,2.33
2017-10-21T08:09:01.350Z,2.73
2017-10-21T08:11:36.205Z,2.17
2017-10-21T08:14:10.911Z,2.10
2017-10-21T08:16:45.436Z,1.90
2017-10-21T08:19:19.881Z,2.80
2017-10-21T08:21:54.406Z,2.30
2017-10-21T08:24:29.117Z,2.10
2017-10-21T08:27:03.889Z,2.00
2017-10-21T08:29:38.472Z,2.10
2017-10-21T08:32:12.995Z,2.73
2017-10-21T08:34:47.385Z,2.77
2017-10-21T08:37:22.325Z,1.83
2017-10-21T08:39:56.773Z,2.07
2017-10-21T08:42:32.246Z,2.27
2017-10-21T08:45:07.353Z,2.13
2017-10-21T08:47:41.938Z,2.23
2017-10-21T08:50:17.086Z,2.37
2017-10-21T08:52:52.041Z,2.23
2017-10-21T08:55:26.795Z,2.47
2017-10-21T08:58:01.849Z,2.30
2017-10-21T09:00:36.141Z,2.30
2017-10-21T09:03:10.913Z,2.80
2017-10-21T09:05:45.949Z,2.40
2017-10-21T09:08:20.400Z,2.80
2017-10-21T09:10:55.368Z,2.53
2017-10-21T09:13:30.132Z,2.43
2017-10-21T09:16:05.017Z,2.33
2017-10-21T09:18:40.001Z,2.13
2017-10-21T09:21:16.285Z,2.20
2017-10-21T09:23:51.626Z,2.57
2017-10-21T09:26:27.308Z,2.50
2017-10-21T09:29:01.665Z,2.53
2017-10-21T09:31:36.637Z,4.67
2017-10-21T09:34:11.596Z,2.27
2017-10-21T09:36:46.328Z,2.47
2017-10-21T09:39:21.207Z,2.43
2017-10-21T09:41:55.813Z,2.17
2017-10-21T09:44:30.529Z,2.70
2017-10-21T09:47:05.017Z,3.03
2017-10-21T09:49:39.914Z,3.10
2017-10-21T09:52:14.696Z,2.90
2017-10-21T09:54:49.382Z,3.20
2017-10-21T09:57:24.204Z,2.83
2017-10-21T09:59:58.959Z,2.17
2017-10-21T10:02:33.714Z,2.43
2017-10-21T10:05:08.562Z,2.53
2017-10-21T10:07:43.296Z,2.70
2017-10-21T10:10:17.968Z,3.40
2017-10-21T10:12:52.630Z,2.90
2017-10-21T10:15:27.352Z,2.90
2017-10-21T10:18:02.314Z,3.33
2017-10-21T10:20:37.158Z,3.10
2017-10-21T10:23:12.081Z,4.10
2017-10-21T10:25:47.341Z,2.90
2017-10-21T10:28:22.641Z,4.70
2017-10-21T10:30:57.160Z,3.27
2017-10-21T10:33:32.076Z,3.80
2017-10-21T10:36:06.540Z,2.60
2017-10-21T10:38:41.695Z,2.63
2017-10-21T10:41:17.213Z,3.50
2017-10-21T10:43:51.840Z,3.20
2017-10-21T10:46:26.461Z,3.47
2017-10-21T10:49:01.197Z,3.50
2017-10-21T10:51:36.089Z,3.57
2017-10-21T10:54:11.026Z,3.33
2017-10-21T10:56:46.675Z,3.80
2017-10-21T10:59:21.252Z,2.90
2017-10-21T11:01:55.889Z,4.23
2017-10-21T11:04:30.717Z,4.90
2017-10-21T11:07:05.739Z,4.00
2017-10-21T11:09:40.677Z,4.20
2017-10-21T11:12:15.724Z,3.80
2017-10-21T11:14:50.657Z,4.40
2017-10-21T11:17:25.277Z,4.53
2017-10-21T11:20:00.309Z,4.17
2017-10-21T11:22:35.029Z,4.07
2017-10-21T11:25:09.736Z,3.47
2017-10-21T11:27:44.360Z,3.60
2017-10-21T11:30:18.840Z,3.33
2017-10-21T11:32:53.981Z,4.77
2017-10-21T11:35:29.088Z,3.60
2017-10-21T11:38:03.887Z,4.00
2017-10-21T11:40:38.536Z,3.47
2017-10-21T11:43:13.210Z,4.10
2017-10-21T11:45:47.860Z,4.00
2017-10-21T11:48:22.552Z,4.50
2017-10-21T11:50:57.301Z,3.93
2017-10-21T11:53:32.017Z,5.37
2017-10-21T11:56:07.031Z,3.90
2017-10-21T11:58:41.672Z,4.10
2017-10-21T12:01:17.452Z,3.93
2017-10-21T12:03:52.085Z,4.00
2017-10-21T12:06:27.780Z,3.87
2017-10-21T12:09:02.461Z,4.00
2017-10-21T12:11:37.304Z,4.07
2017-10-21T12:14:12.137Z,4.37
2017-10-21T12:16:47.879Z,4.10
2017-10-21T12:19:22.573Z,4.23
2017-10-21T12:21:57.166Z,3.83
2017-10-21T12:24:32.232Z,4.00
2017-10-21T12:27:06.856Z,4.23
2017-10-21T12:29:41.664Z,4.07
2017-10-21T12:32:16.659Z,4.67
2017-10-21T12:34:51.752Z,4.33
2017-10-21T12:37:26.269Z,3.57
2017-10-21T12:40:01.433Z,4.10
2017-10-21T12:42:36.376Z,3.80
2017-10-21T12:45:11.857Z,4.90
2017-10-21T12:47:46.780Z,4.20
2017-10-21T12:50:21.191Z,4.17
2017-10-21T12:52:55.687Z,4.40
2017-10-21T12:55:31.273Z,4.40
2017-10-21T12:58:05.896Z,5.50
2017-10-21T13:00:40.654Z,4.50
2017-10-21T13:03:15.352Z,4.17
2017-10-21T13:05:50.089Z,4.90
2017-10-21T13:08:24.832Z,4.23
2017-10-21T13:10:59.543Z,4.27
2017-10-21T13:13:34.064Z,4.70
2017-10-21T13:16:08.804Z,4.53
2017-10-21T13:18:43.473Z,5.30
2017-10-21T13:21:18.181Z,4.53
2017-10-21T13:23:53.104Z,5.47
2017-10-21T13:26:27.865Z,5.10
2017-10-21T13:29:02.514Z,6.57
2017-10-21T13:31:37.468Z,6.67
2017-10-21T13:34:12.226Z,6.37
2017-10-21T13:36:47.030Z,6.20
2017-10-21T13:39:21.773Z,6.80
2017-10-21T13:41:58.105Z,7.30
2017-10-21T13:44:33.208Z,6.90
2017-10-21T13:47:07.953Z,8.03
2017-10-21T13:49:42.755Z,8.80
2017-10-21T13:52:17.503Z,8.23
2017-10-21T13:54:52.405Z,8.70
2017-10-21T13:57:26.894Z,10.23
2017-10-21T14:00:02.237Z,15.53
2017-10-21T14:02:37.464Z,16.17
2017-10-21T14:05:12.469Z,10.80
2017-10-21T14:07:47.112Z,10.77
2017-10-21T14:10:22.205Z,10.30
2017-10-21T14:12:56.820Z,9.23
2017-10-21T14:15:31.981Z,9.77
2017-10-21T14:18:05.948Z,8.53
2017-10-21T14:20:40.999Z,8.30
2017-10-21T14:23:15.874Z,8.77
2017-10-21T14:25:50.426Z,8.27
2017-10-21T14:28:25.344Z,8.60
2017-10-21T14:30:59.986Z,8.07
2017-10-21T14:33:34.800Z,8.50
2017-10-21T14:36:09.631Z,8.60
2017-10-21T14:38:44.374Z,8.87
2017-10-21T14:41:20.544Z,8.20
2017-10-21T14:43:56.771Z,9.53
2017-10-21T14:46:31.689Z,8.60
2017-10-21T14:49:06.530Z,9.13
2017-10-21T14:51:41.017Z,9.30
2017-10-21T14:54:15.268Z,9.60
2017-10-21T14:56:50.097Z,9.10
2017-10-21T14:59:25.198Z,8.70
2017-10-21T15:02:00.276Z,8.60
2017-10-21T15:04:35.264Z,8.57
2017-10-21T15:07:10.544Z,8.60
2017-10-21T15:09:45.324Z,8.80
2017-10-21T15:12:20.105Z,8.57
2017-10-21T15:14:55.253Z,9.77
2017-10-21T15:17:29.985Z,9.17
2017-10-21T15:20:04.752Z,10.20
2017-10-21T15:22:39.423Z,9.03
2017-10-21T15:25:14.744Z,9.87
2017-10-21T15:27:49.563Z,9.40
2017-10-21T15:30:24.285Z,9.13
2017-10-21T15:32:59.170Z,9.47
2017-10-21T15:35:33.869Z,9.33
2017-10-21T15:38:08.525Z,10.23
2017-10-21T15:40:43.255Z,10.17
2017-10-21T15:43:18.068Z,9.70
2017-10-21T15:45:52.799Z,9.10
2017-10-21T15:48:27.601Z,9.60
2017-10-21T15:51:02.441Z,9.23
2017-10-21T15:53:37.253Z,8.87
2017-10-21T15:56:12.220Z,9.10
2017-10-21T15:58:46.991Z,9.73
2017-10-21T16:01:21.873Z,9.00
2017-10-21T16:03:56.696Z,9.40
2017-10-21T16:06:31.707Z,10.20
2017-10-21T16:09:06.723Z,9.70
2017-10-21T16:11:41.653Z,8.70
2017-10-21T16:14:16.588Z,8.37
2017-10-21T16:16:51.712Z,8.50
2017-10-21T16:19:26.822Z,8.97
2017-10-21T16:22:02.376Z,8.40
2017-10-21T16:24:37.345Z,8.33
2017-10-21T16:27:12.190Z,7.80
2017-10-21T16:29:47.000Z,7.60
2017-10-21T16:32:21.794Z,8.33
2017-10-21T16:34:56.544Z,8.17
2017-10-21T16:37:32.180Z,7.10
2017-10-21T16:40:06.944Z,7.33
2017-10-21T16:42:41.653Z,7.60
2017-10-21T16:45:16.413Z,7.23
2017-10-21T16:47:51.036Z,7.57
2017-10-21T16:50:25.608Z,7.20
2017-10-21T16:53:00.573Z,7.73
2017-10-21T16:55:35.501Z,8.40
2017-10-21T16:58:10.078Z,8.93
2017-10-21T17:00:44.397Z,7.70
2017-10-21T17:03:19.357Z,8.23
2017-10-21T17:05:54.118Z,7.70
2017-10-21T17:08:29.031Z,7.70
2017-10-21T17:11:03.712Z,7.73
2017-10-21T17:13:38.487Z,8.73
2017-10-21T17:16:13.221Z,10.57
2017-10-21T17:18:47.929Z,9.10
2017-10-21T17:21:22.814Z,7.70
2017-10-21T17:23:57.811Z,7.93
2017-10-21T17:26:32.740Z,8.57
2017-10-21T17:29:07.183Z,8.10
2017-10-21T17:31:41.913Z,8.50
2017-10-21T17:34:16.537Z,15.33
2017-10-21T17:36:51.595Z,8.80
2017-10-21T17:39:26.732Z,11.30
2017-10-21T17:42:01.628Z,8.80
2017-10-21T17:44:36.437Z,9.17
2017-10-21T17:47:11.197Z,8.77
2017-10-21T17:49:45.993Z,8.37
2017-10-21T17:52:20.645Z,9.20
2017-10-21T17:54:55.244Z,11.47
2017-10-21T17:57:30.352Z,8.70
2017-10-21T18:00:05.737Z,8.10
2017-10-21T18:02:40.623Z,8.60
2017-10-21T18:05:15.413Z,8.27
2017-10-21T18:07:51.044Z,8.10
2017-10-21T18:10:25.988Z,8.70
2017-10-21T18:13:00.831Z,8.50
2017-10-21T18:15:35.577Z,8.13
2017-10-21T18:18:10.392Z,8.00
2017-10-21T18:20:45.110Z,8.67
2017-10-21T18:23:20.681Z,8.37
2017-10-21T18:25:55.492Z,8.63
2017-10-21T18:28:30.184Z,8.13
2017-10-21T18:31:04.693Z,8.10
2017-10-21T18:33:39.721Z,9.03
2017-10-21T18:36:14.416Z,8.27
2017-10-21T18:38:49.151Z,8.37
2017-10-21T18:41:23.873Z,8.30
2017-10-21T18:43:59.714Z,7.30
2017-10-21T18:46:36.345Z,7.20
2017-10-21T18:49:11.053Z,6.70
2017-10-21T18:51:45.780Z,6.07
2017-10-21T18:54:20.584Z,5.60
2017-10-21T18:56:55.440Z,5.57
2017-10-21T18:59:30.117Z,4.90
2017-10-21T19:02:04.817Z,3.97
2017-10-21T19:04:39.548Z,4.33
2017-10-21T19:07:14.220Z,3.30
2017-10-21T19:09:48.997Z,3.33
2017-10-21T19:12:23.733Z,4.00
2017-10-21T19:14:58.493Z,3.27
2017-10-21T19:17:33.360Z,3.93
2017-10-21T19:20:08.229Z,3.20
2017-10-21T19:22:43.200Z,3.13
2017-10-21T19:25:17.929Z,3.00
2017-10-21T19:27:53.812Z,3.20
2017-10-21T19:30:28.480Z,3.00
2017-10-21T19:33:03.259Z,3.13
2017-10-21T19:35:38.187Z,2.80
2017-10-21T19:38:12.929Z,2.70
2017-10-21T19:40:47.820Z,3.00
2017-10-21T19:43:22.696Z,3.30
2017-10-21T19:45:57.930Z,3.13
2017-10-21T19:48:32.853Z,2.30
2017-10-21T19:51:07.240Z,3.00
2017-10-21T19:53:42.589Z,2.37
2017-10-21T19:56:18.066Z,2.60
2017-10-21T19:58:53.216Z,2.83
2017-10-21T20:01:28.103Z,2.90
2017-10-21T20:04:02.718Z,2.63
2017-10-21T20:06:37.501Z,2.90
2017-10-21T20:09:12.169Z,2.77
2017-10-21T20:11:46.852Z,2.57
2017-10-21T20:14:21.687Z,2.60
2017-10-21T20:16:56.445Z,3.07
2017-10-21T20:19:31.196Z,2.97
2017-10-21T20:22:05.857Z,2.87
2017-10-21T20:24:41.756Z,2.83
2017-10-21T20:27:15.912Z,3.17
2017-10-21T20:29:51.045Z,3.00
2017-10-21T20:32:25.602Z,2.50
2017-10-21T20:35:00.444Z,3.73
2017-10-21T20:37:35.149Z,2.63
2017-10-21T20:40:09.953Z,3.43
2017-10-21T20:42:45.544Z,3.10
2017-10-21T20:45:20.367Z,3.47
2017-10-21T20:47:54.821Z,3.40
2017-10-21T20:50:29.933Z,3.50
2017-10-21T20:53:04.485Z,3.30
2017-10-21T20:55:39.372Z,3.20
2017-10-21T20:58:14.527Z,3.73
2017-10-21T21:00:49.372Z,2.63
2017-10-21T21:03:24.200Z,3.13
2017-10-21T21:05:58.813Z,3.13
2017-10-21T21:08:33.659Z,3.20
2017-10-21T21:11:08.460Z,3.00
2017-10-21T21:13:43.200Z,2.90
2017-10-21T21:16:18.036Z,2.70
2017-10-21T21:18:52.676Z,3.30
2017-10-21T21:21:27.489Z,3.50
2017-10-21T21:24:02.413Z,2.70
2017-10-21T21:26:36.986Z,3.30
2017-10-21T21:29:11.700Z,3.33
2017-10-21T21:31:46.469Z,2.37
2017-10-21T21:34:21.245Z,3.30
2017-10-21T21:36:55.981Z,2.40
2017-10-21T21:39:30.612Z,2.00
2017-10-21T21:42:05.295Z,2.70
2017-10-21T21:44:40.021Z,2.07
2017-10-21T21:47:14.880Z,2.70
2017-10-21T21:49:49.899Z,2.43
2017-10-21T21:52:24.680Z,2.90
2017-10-21T21:54:59.504Z,2.57
2017-10-21T21:57:34.317Z,2.37
2017-10-21T22:00:09.136Z,2.00
2017-10-21T22:02:44.328Z,1.70
2017-10-21T22:05:19.473Z,2.17
2017-10-21T22:07:54.509Z,2.40
2017-10-21T22:10:29.479Z,2.50
2017-10-21T22:13:04.417Z,1.73
2017-10-21T22:15:39.283Z,2.50
2017-10-21T22:18:14.244Z,1.97
2017-10-21T22:20:48.992Z,1.60
2017-10-21T22:23:23.847Z,1.83
2017-10-21T22:25:58.720Z,3.07
2017-10-21T22:28:33.532Z,3.00
2017-10-21T22:31:09.088Z,2.77
2017-10-21T22:33:43.892Z,3.20
2017-10-21T22:36:18.762Z,3.40
2017-10-21T22:38:53.668Z,3.23
2017-10-21T22:41:29.337Z,3.30
2017-10-21T22:44:04.042Z,3.33
2017-10-21T22:46:39.588Z,3.10
2017-10-21T22:49:14.128Z,2.60
2017-10-21T22:51:48.848Z,3.10
2017-10-21T22:54:23.376Z,3.30
2017-10-21T22:56:58.413Z,2.97
2017-10-21T22:59:33.529Z,3.40
2017-10-21T23:02:08.091Z,2.87
2017-10-21T23:04:43.107Z,2.90
2017-10-21T23:07:18.076Z,2.83
2017-10-21T23:09:52.916Z,3.40
2017-10-21T23:12:27.680Z,2.97
2017-10-21T23:15:02.921Z,3.07
2017-10-21T23:17:37.691Z,3.30
2017-10-21T23:20:12.813Z,3.30
2017-10-21T23:22:47.844Z,2.60
2017-10-21T23:25:22.645Z,2.50
2017-10-21T23:27:57.463Z,4.73
2017-10-21T23:30:32.672Z,3.10
2017-10-21T23:33:07.208Z,2.83
2017-10-21T23:35:41.949Z,3.20
2017-10-21T23:38:17.064Z,3.10
2017-10-21T23:40:51.832Z,1.93
2017-10-21T23:43:26.604Z,2.50
2017-10-21T23:46:01.236Z,2.50
2017-10-21T23:48:35.936Z,2.57
2017-10-21T23:51:10.792Z,1.97
2017-10-21T23:53:45.512Z,2.30
2017-10-21T23:56:20.242Z,2.87
2017-10-21T23:58:54.876Z,2.60
